createdAt,value
2023-05-19T00:01:00.471Z,10.03
2023-05-19T00:03:27.477Z,9.91
2023-05-19T00:05:54.617Z,9.92
2023-05-19T00:08:24.763Z,9.86
2023-05-19T00:10:51.501Z,9.85
2023-05-19T00:13:20.032Z,9.85
2023-05-19T00:15:47.241Z,9.75
2023-05-19T00:18:14.470Z,9.70
2023-05-19T00:20:41.552Z,9.52
2023-05-19T00:23:08.537Z,9.45
2023-05-19T00:25:35.919Z,9.23
2023-05-19T00:28:03.346Z,9.31
2023-05-19T00:30:30.955Z,9.32
2023-05-19T00:32:57.735Z,9.43
2023-05-19T00:35:24.537Z,9.27
2023-05-19T00:37:53.701Z,9.42
2023-05-19T00:40:20.851Z,9.44
2023-05-19T00:42:47.474Z,9.29
2023-05-19T00:45:14.310Z,9.17
2023-05-19T00:47:40.855Z,9.05
2023-05-19T00:50:07.808Z,9.02
2023-05-19T00:52:34.464Z,8.86
2023-05-19T00:55:01.350Z,8.98
2023-05-19T00:57:28.455Z,9.01
2023-05-19T00:59:55.083Z,8.82
2023-05-19T01:02:21.817Z,9.02
2023-05-19T01:04:50.236Z,9.01
2023-05-19T01:07:16.811Z,9.14
2023-05-19T01:09:43.768Z,9.08
2023-05-19T01:12:10.666Z,9.11
2023-05-19T01:14:37.694Z,9.16
2023-05-19T01:17:10.372Z,9.19
2023-05-19T01:20:02.432Z,9.12
2023-05-19T01:22:55.007Z,9.08
2023-05-19T01:25:45.846Z,8.95
2023-05-19T01:28:47.669Z,8.97
2023-05-19T01:31:16.946Z,8.82
2023-05-19T01:33:45.521Z,8.90
2023-05-19T01:36:13.686Z,8.88
2023-05-19T01:38:40.637Z,8.61
2023-05-19T01:41:11.312Z,8.81
2023-05-19T01:43:39.562Z,8.77
2023-05-19T01:46:07.279Z,8.69
2023-05-19T01:48:34.206Z,8.56
2023-05-19T01:51:00.808Z,8.68
2023-05-19T01:53:27.619Z,8.73
2023-05-19T01:55:55.987Z,8.59
2023-05-19T01:58:45.839Z,8.40
2023-05-19T02:01:34.203Z,8.31
2023-05-19T02:04:16.292Z,8.41
2023-05-19T02:07:03.821Z,8.40
2023-05-19T02:09:50.601Z,8.39
2023-05-19T02:12:32.721Z,8.48
2023-05-19T02:15:05.250Z,8.42
2023-05-19T02:17:36.295Z,8.36
2023-05-19T02:20:06.775Z,8.47
2023-05-19T02:22:33.383Z,8.21
2023-05-19T02:25:00.446Z,8.10
2023-05-19T02:27:27.267Z,8.12
2023-05-19T02:29:53.912Z,8.26
2023-05-19T02:32:20.953Z,8.17
2023-05-19T02:34:48.421Z,8.26
2023-05-19T02:37:16.115Z,8.11
2023-05-19T02:39:43.526Z,7.94
2023-05-19T02:42:10.518Z,7.97
2023-05-19T02:44:37.184Z,7.95
2023-05-19T02:47:03.811Z,7.83
2023-05-19T02:49:36.129Z,7.99
2023-05-19T02:52:06.202Z,8.02
2023-05-19T02:54:34.344Z,8.08
2023-05-19T02:57:01.547Z,8.34
2023-05-19T02:59:28.858Z,8.15
2023-05-19T03:01:57.627Z,8.37
2023-05-19T03:04:24.293Z,8.48
2023-05-19T03:06:51.086Z,8.43
2023-05-19T03:09:17.697Z,8.47
2023-05-19T03:11:44.333Z,8.39
2023-05-19T03:14:10.857Z,8.45
2023-05-19T03:16:37.711Z,8.42
2023-05-19T03:19:04.398Z,8.46
2023-05-19T03:21:32.266Z,8.36
2023-05-19T03:23:58.863Z,8.37
2023-05-19T03:26:25.494Z,8.30
2023-05-19T03:28:52.153Z,8.07
2023-05-19T03:31:18.790Z,8.32
2023-05-19T03:33:45.499Z,8.34
2023-05-19T03:36:12.854Z,8.37
2023-05-19T03:38:39.571Z,8.31
2023-05-19T03:41:07.111Z,8.41
2023-05-19T03:43:33.726Z,8.40
2023-05-19T03:46:00.548Z,8.41
2023-05-19T03:48:27.399Z,8.35
2023-05-19T03:50:54.637Z,8.39
2023-05-19T03:53:21.203Z,8.20
2023-05-19T03:55:49.750Z,8.24
2023-05-19T03:58:16.882Z,8.07
2023-05-19T04:00:43.487Z,7.65
2023-05-19T04:03:10.512Z,7.60
2023-05-19T04:05:37.344Z,7.57
2023-05-19T04:08:04.979Z,7.63
2023-05-19T04:10:31.994Z,7.75
2023-05-19T04:12:59.389Z,7.83
2023-05-19T04:15:26.245Z,8.28
2023-05-19T04:17:52.884Z,8.35
2023-05-19T04:20:19.529Z,8.50
2023-05-19T04:22:46.089Z,8.40
2023-05-19T04:25:13.284Z,8.62
2023-05-19T04:27:40.078Z,8.61
2023-05-19T04:30:07.981Z,8.57
2023-05-19T04:32:34.674Z,8.72
2023-05-19T04:35:01.551Z,8.93
2023-05-19T04:37:28.134Z,8.94
2023-05-19T04:39:54.768Z,8.67
2023-05-19T04:42:21.496Z,8.93
2023-05-19T04:44:49.426Z,9.04
2023-05-19T04:47:16.274Z,9.28
2023-05-19T04:49:43.070Z,9.09
2023-05-19T04:52:11.112Z,9.14
2023-05-19T04:54:38.619Z,9.23
2023-05-19T04:57:05.759Z,9.25
2023-05-19T04:59:32.484Z,9.09
2023-05-19T05:01:59.166Z,9.11
2023-05-19T05:04:26.067Z,9.19
2023-05-19T05:06:52.687Z,9.25
2023-05-19T05:09:20.316Z,9.44
2023-05-19T05:11:47.248Z,9.63
2023-05-19T05:14:17.328Z,9.79
2023-05-19T05:16:44.293Z,9.63
2023-05-19T05:19:11.484Z,9.69
2023-05-19T05:21:38.265Z,9.78
2023-05-19T05:24:05.457Z,9.79
2023-05-19T05:26:34.564Z,9.99
2023-05-19T05:29:01.892Z,10.07
2023-05-19T05:31:28.960Z,10.11
2023-05-19T05:33:56.043Z,10.22
2023-05-19T05:36:22.658Z,10.35
2023-05-19T05:38:49.241Z,10.42
2023-05-19T05:41:19.545Z,10.48
2023-05-19T05:43:46.149Z,10.80
2023-05-19T05:46:12.857Z,11.12
2023-05-19T05:48:42.207Z,11.57
2023-05-19T05:51:09.349Z,11.94
2023-05-19T05:53:42.240Z,12.19
2023-05-19T05:56:10.404Z,12.83
2023-05-19T05:58:38.182Z,12.45
2023-05-19T06:01:05.504Z,12.88
2023-05-19T06:03:32.230Z,12.89
2023-05-19T06:05:59.460Z,13.00
2023-05-19T06:08:26.248Z,13.17
2023-05-19T06:10:52.850Z,12.45
2023-05-19T06:13:22.702Z,12.93
2023-05-19T06:15:49.902Z,12.91
2023-05-19T06:18:16.489Z,12.80
2023-05-19T06:20:43.415Z,13.45
2023-05-19T06:23:10.015Z,13.64
2023-05-19T06:25:36.776Z,13.25
2023-05-19T06:28:03.699Z,14.19
2023-05-19T06:30:30.467Z,12.66
2023-05-19T06:32:57.228Z,14.32
2023-05-19T06:35:24.783Z,13.36
2023-05-19T06:37:51.518Z,13.31
2023-05-19T06:40:18.107Z,15.21
2023-05-19T06:42:44.884Z,14.74
2023-05-19T06:45:11.683Z,15.31
2023-05-19T06:47:38.388Z,15.55
2023-05-19T06:50:05.465Z,15.23
2023-05-19T06:52:32.101Z,14.31
2023-05-19T06:54:58.638Z,15.59
2023-05-19T06:57:25.236Z,15.72
2023-05-19T06:59:52.096Z,15.78
2023-05-19T07:02:18.632Z,16.00
2023-05-19T07:04:45.216Z,16.87
2023-05-19T07:07:12.135Z,15.90
2023-05-19T07:09:38.723Z,16.41
2023-05-19T07:12:06.028Z,17.13
2023-05-19T07:14:53.492Z,17.58
2023-05-19T07:17:20.751Z,16.95
2023-05-19T07:19:47.184Z,16.84
2023-05-19T07:22:13.828Z,17.37
2023-05-19T07:24:40.939Z,15.41
2023-05-19T07:27:07.602Z,17.87
2023-05-19T07:29:49.291Z,16.99
2023-05-19T07:32:15.903Z,17.16
2023-05-19T07:34:42.593Z,18.48
2023-05-19T07:37:09.392Z,17.63
2023-05-19T07:39:36.308Z,17.98
2023-05-19T07:42:05.075Z,18.10
2023-05-19T07:44:31.722Z,17.30
2023-05-19T07:46:58.329Z,17.42
2023-05-19T07:49:24.845Z,18.01
2023-05-19T07:51:51.455Z,17.56
2023-05-19T07:54:18.429Z,18.68
2023-05-19T07:56:45.276Z,18.23
2023-05-19T07:59:12.280Z,17.44
2023-05-19T08:01:39.075Z,18.34
2023-05-19T08:04:06.148Z,18.29
2023-05-19T08:06:33.170Z,18.40
2023-05-19T08:08:59.861Z,19.25
2023-05-19T08:11:26.870Z,18.72
2023-05-19T08:13:53.818Z,18.61
2023-05-19T08:16:21.121Z,18.75
2023-05-19T08:18:47.838Z,18.52
2023-05-19T08:21:14.875Z,19.01
2023-05-19T08:23:49.219Z,17.97
2023-05-19T08:26:16.183Z,20.01
2023-05-19T08:28:44.757Z,19.79
2023-05-19T08:31:11.475Z,19.68
2023-05-19T08:33:38.148Z,20.74
2023-05-19T08:36:05.278Z,20.39
2023-05-19T08:38:31.828Z,19.06
2023-05-19T08:40:58.762Z,17.32
2023-05-19T08:43:26.001Z,18.34
2023-05-19T08:45:54.518Z,18.67
2023-05-19T08:48:22.560Z,18.01
2023-05-19T08:51:12.345Z,18.62
2023-05-19T08:53:44.078Z,18.22
2023-05-19T08:56:23.319Z,19.62
2023-05-19T08:58:51.471Z,20.09
2023-05-19T09:01:20.158Z,19.31
2023-05-19T09:03:49.990Z,19.49
2023-05-19T09:06:19.226Z,20.50
2023-05-19T09:08:47.229Z,19.88
2023-05-19T09:11:14.818Z,19.91
2023-05-19T09:13:41.821Z,19.32
2023-05-19T09:16:08.834Z,20.41
2023-05-19T09:18:39.667Z,19.99
2023-05-19T09:21:07.588Z,20.65
2023-05-19T09:23:34.753Z,19.85
2023-05-19T09:26:08.918Z,19.65
2023-05-19T09:28:38.039Z,20.47
2023-05-19T09:31:11.743Z,22.62
2023-05-19T09:33:45.786Z,20.03
2023-05-19T09:36:13.764Z,19.74
2023-05-19T09:38:40.942Z,18.88
2023-05-19T09:41:09.175Z,20.31
2023-05-19T09:43:36.501Z,20.41
2023-05-19T09:46:08.583Z,19.30
2023-05-19T09:48:36.874Z,19.37
2023-05-19T09:51:13.739Z,18.84
2023-05-19T09:53:40.535Z,20.14
2023-05-19T09:56:08.986Z,20.10
2023-05-19T09:58:36.486Z,20.28
2023-05-19T10:01:04.709Z,21.43
2023-05-19T10:03:35.839Z,21.22
2023-05-19T10:06:07.648Z,19.47
2023-05-19T10:08:34.892Z,21.22
2023-05-19T10:11:03.714Z,20.49
2023-05-19T10:13:31.113Z,19.04
2023-05-19T10:15:59.966Z,19.30
2023-05-19T10:18:31.896Z,20.01
2023-05-19T10:21:01.003Z,19.34
2023-05-19T10:23:27.760Z,19.16
2023-05-19T10:25:57.785Z,19.81
2023-05-19T10:28:28.366Z,20.12
2023-05-19T10:30:58.774Z,20.31
2023-05-19T10:33:41.261Z,19.13
2023-05-19T10:36:23.870Z,20.96
2023-05-19T10:39:05.279Z,20.86
2023-05-19T10:41:59.459Z,20.83
2023-05-19T10:45:05.031Z,20.85
2023-05-19T10:47:32.645Z,19.93
2023-05-19T10:50:01.273Z,20.01
2023-05-19T10:52:30.184Z,19.90
2023-05-19T10:54:58.541Z,19.59
2023-05-19T10:57:32.335Z,19.10
2023-05-19T11:00:13.778Z,18.96
2023-05-19T11:02:44.441Z,18.41
2023-05-19T11:05:16.802Z,17.77
2023-05-19T11:08:06.287Z,18.20
2023-05-19T11:10:33.059Z,17.95
2023-05-19T11:13:00.213Z,19.20
2023-05-19T11:15:28.058Z,18.81
2023-05-19T11:17:55.242Z,19.57
2023-05-19T11:20:30.773Z,18.96
2023-05-19T11:23:03.964Z,18.82
2023-05-19T11:25:51.575Z,18.83
2023-05-19T11:28:19.988Z,18.97
2023-05-19T11:30:50.818Z,18.75
2023-05-19T11:33:20.440Z,19.24
2023-05-19T11:35:49.581Z,20.48
2023-05-19T11:38:18.725Z,19.54
2023-05-19T11:40:45.918Z,18.98
2023-05-19T11:43:12.641Z,19.82
2023-05-19T11:45:40.169Z,19.33
2023-05-19T11:48:10.927Z,20.04
2023-05-19T11:50:38.483Z,19.54
2023-05-19T11:53:05.199Z,19.37
2023-05-19T11:55:31.989Z,20.36
2023-05-19T11:58:04.527Z,19.80
2023-05-19T12:00:39.575Z,19.73
2023-05-19T12:03:07.602Z,19.59
2023-05-19T12:05:41.813Z,19.62
2023-05-19T12:08:10.082Z,19.60
2023-05-19T12:10:37.284Z,20.69
2023-05-19T12:13:06.608Z,20.88
2023-05-19T12:15:33.858Z,21.90
2023-05-19T12:18:04.030Z,21.05
2023-05-19T12:20:32.790Z,20.46
2023-05-19T12:23:00.907Z,21.61
2023-05-19T12:25:29.650Z,20.77
2023-05-19T12:28:00.786Z,19.99
2023-05-19T12:30:30.465Z,21.01
2023-05-19T12:32:58.289Z,19.52
2023-05-19T12:35:34.970Z,20.57
2023-05-19T12:38:07.840Z,21.66
2023-05-19T12:40:36.592Z,22.24
2023-05-19T12:43:04.359Z,20.33
2023-05-19T12:45:42.764Z,20.82
2023-05-19T12:48:12.896Z,21.15
2023-05-19T12:50:39.879Z,21.05
2023-05-19T12:53:09.581Z,22.07
2023-05-19T12:55:44.162Z,22.19
2023-05-19T12:58:16.140Z,22.74
2023-05-19T13:00:47.953Z,21.99
2023-05-19T13:03:17.642Z,20.06
2023-05-19T13:05:50.710Z,20.03
2023-05-19T13:08:24.259Z,20.27
2023-05-19T13:10:51.060Z,19.69
2023-05-19T13:13:18.092Z,20.00
2023-05-19T13:15:46.352Z,20.37
2023-05-19T13:18:13.854Z,20.36
2023-05-19T13:20:41.892Z,19.65
2023-05-19T13:23:14.651Z,19.95
2023-05-19T13:25:42.253Z,19.55
2023-05-19T13:28:09.135Z,19.11
2023-05-19T13:30:38.760Z,19.05
2023-05-19T13:33:05.961Z,19.37
2023-05-19T13:35:39.094Z,18.95
2023-05-19T13:38:08.040Z,18.90
2023-05-19T13:40:35.264Z,18.42
2023-05-19T13:43:03.014Z,18.38
2023-05-19T13:45:30.333Z,18.73
2023-05-19T13:47:57.159Z,18.66
2023-05-19T13:50:23.934Z,18.24
2023-05-19T13:52:50.831Z,18.71
2023-05-19T13:55:17.871Z,19.04
2023-05-19T13:57:45.690Z,18.76
2023-05-19T14:00:12.898Z,18.97
2023-05-19T14:02:39.957Z,18.53
2023-05-19T14:05:07.586Z,19.03
2023-05-19T14:07:35.213Z,18.88
2023-05-19T14:10:08.421Z,18.54
2023-05-19T14:12:49.384Z,18.40
2023-05-19T14:15:19.827Z,18.18
2023-05-19T14:17:46.385Z,18.41
2023-05-19T14:20:13.077Z,18.60
2023-05-19T14:22:39.530Z,19.06
2023-05-19T14:25:06.832Z,19.11
2023-05-19T14:27:33.458Z,18.85
2023-05-19T14:30:00.177Z,18.70
2023-05-19T14:32:28.625Z,18.38
2023-05-19T14:34:56.772Z,18.48
2023-05-19T14:37:23.298Z,18.63
2023-05-19T14:39:55.218Z,18.76
2023-05-19T14:42:21.907Z,18.22
2023-05-19T14:44:50.466Z,18.72
2023-05-19T14:47:17.165Z,18.78
2023-05-19T14:49:43.826Z,18.18
2023-05-19T14:52:10.829Z,18.13
2023-05-19T14:54:37.347Z,18.12
2023-05-19T14:57:04.739Z,18.39
2023-05-19T14:59:31.413Z,18.47
2023-05-19T15:01:58.115Z,18.37
2023-05-19T15:04:24.886Z,18.02
2023-05-19T15:07:05.756Z,17.99
2023-05-19T15:09:36.241Z,18.33
2023-05-19T15:12:02.899Z,17.82
2023-05-19T15:14:30.862Z,18.10
2023-05-19T15:16:58.157Z,17.89
2023-05-19T15:19:27.431Z,17.94
2023-05-19T15:21:54.336Z,17.78
2023-05-19T15:24:20.922Z,17.61
2023-05-19T15:26:47.769Z,17.69
2023-05-19T15:29:14.582Z,18.02
2023-05-19T15:31:41.734Z,17.92
2023-05-19T15:34:09.336Z,17.71
2023-05-19T15:36:35.991Z,17.71
2023-05-19T15:39:03.977Z,17.60
2023-05-19T15:41:30.659Z,17.45
2023-05-19T15:43:57.535Z,17.67
2023-05-19T15:46:24.121Z,17.68
2023-05-19T15:48:51.008Z,17.66
2023-05-19T15:51:17.736Z,17.83
2023-05-19T15:53:44.490Z,17.65
2023-05-19T15:56:11.134Z,17.72
2023-05-19T15:58:37.820Z,17.82
2023-05-19T16:01:05.767Z,17.67
2023-05-19T16:03:32.620Z,17.75
2023-05-19T16:05:59.420Z,17.79
2023-05-19T16:08:26.394Z,17.83
2023-05-19T16:10:54.847Z,17.68
2023-05-19T16:13:21.930Z,17.57
2023-05-19T16:15:48.779Z,17.59
2023-05-19T16:18:18.379Z,17.68
2023-05-19T16:20:45.328Z,17.51
2023-05-19T16:23:12.275Z,17.66
2023-05-19T16:25:41.370Z,17.58
2023-05-19T16:28:22.453Z,17.44
2023-05-19T16:30:50.407Z,17.68
2023-05-19T16:33:16.972Z,17.56
2023-05-19T16:35:43.649Z,17.56
2023-05-19T16:38:10.189Z,17.49
2023-05-19T16:40:40.065Z,17.53
2023-05-19T16:43:06.669Z,17.49
2023-05-19T16:45:33.276Z,17.33
2023-05-19T16:47:59.867Z,17.32
2023-05-19T16:50:26.475Z,17.36
2023-05-19T16:52:53.105Z,17.49
2023-05-19T16:55:20.393Z,17.51
2023-05-19T16:57:47.255Z,17.39
2023-05-19T17:00:15.246Z,17.40
2023-05-19T17:02:41.918Z,17.36
2023-05-19T17:05:08.969Z,17.36
2023-05-19T17:07:35.705Z,17.29
2023-05-19T17:10:02.318Z,17.35
2023-05-19T17:12:30.094Z,17.30
2023-05-19T17:14:57.056Z,17.16
2023-05-19T17:17:23.679Z,17.08
2023-05-19T17:19:50.278Z,17.14
2023-05-19T17:22:30.349Z,17.19
2023-05-19T17:24:57.628Z,17.16
2023-05-19T17:27:24.334Z,17.18
2023-05-19T17:29:51.025Z,17.03
2023-05-19T17:32:17.723Z,17.04
2023-05-19T17:34:44.280Z,16.96
2023-05-19T17:37:10.826Z,17.02
2023-05-19T17:39:37.474Z,17.03
2023-05-19T17:42:04.250Z,17.11
2023-05-19T17:44:30.803Z,16.92
2023-05-19T17:46:58.319Z,16.99
2023-05-19T17:49:29.054Z,17.02
2023-05-19T17:51:56.393Z,16.92
2023-05-19T17:54:23.623Z,16.94
2023-05-19T17:56:51.171Z,16.86
2023-05-19T17:59:18.094Z,16.85
2023-05-19T18:01:45.839Z,16.86
2023-05-19T18:04:13.901Z,16.75
2023-05-19T18:06:45.096Z,16.69
2023-05-19T18:09:14.204Z,16.70
2023-05-19T18:11:40.826Z,16.66
2023-05-19T18:14:07.523Z,16.67
2023-05-19T18:16:35.056Z,16.66
2023-05-19T18:19:02.042Z,16.69
2023-05-19T18:21:28.757Z,16.38
2023-05-19T18:23:55.410Z,16.51
2023-05-19T18:26:22.262Z,16.49
2023-05-19T18:28:48.813Z,16.39
2023-05-19T18:31:20.014Z,16.34
2023-05-19T18:33:47.456Z,16.14
2023-05-19T18:36:16.769Z,16.16
2023-05-19T18:38:43.487Z,16.03
2023-05-19T18:41:10.287Z,16.04
2023-05-19T18:43:40.476Z,15.96
2023-05-19T18:46:07.082Z,15.82
2023-05-19T18:48:33.618Z,15.70
2023-05-19T18:51:00.350Z,15.67
2023-05-19T18:53:26.912Z,15.59
2023-05-19T18:55:53.439Z,15.58
2023-05-19T18:58:20.114Z,15.49
2023-05-19T19:00:47.003Z,15.51
2023-05-19T19:03:14.346Z,15.43
2023-05-19T19:05:40.928Z,15.39
2023-05-19T19:08:10.692Z,15.35
2023-05-19T19:10:41.215Z,15.25
2023-05-19T19:13:08.099Z,15.06
2023-05-19T19:15:34.856Z,15.08
2023-05-19T19:18:01.524Z,14.88
2023-05-19T19:20:28.186Z,14.87
2023-05-19T19:22:55.297Z,14.86
2023-05-19T19:25:23.660Z,14.75
2023-05-19T19:27:50.679Z,14.61
2023-05-19T19:30:17.445Z,14.70
2023-05-19T19:32:44.090Z,14.62
2023-05-19T19:35:11.657Z,14.54
2023-05-19T19:37:38.335Z,14.59
2023-05-19T19:40:05.581Z,14.51
2023-05-19T19:42:32.472Z,14.54
2023-05-19T19:44:59.335Z,14.52
2023-05-19T19:47:28.274Z,14.48
2023-05-19T19:49:57.984Z,14.43
2023-05-19T19:52:25.532Z,14.43
2023-05-19T19:54:52.205Z,14.47
2023-05-19T19:57:18.788Z,14.36
2023-05-19T19:59:45.352Z,14.40
2023-05-19T20:02:12.049Z,14.44
2023-05-19T20:04:39.491Z,14.31
2023-05-19T20:07:06.189Z,14.15
2023-05-19T20:09:32.765Z,14.04
2023-05-19T20:11:59.461Z,14.12
2023-05-19T20:14:26.157Z,14.06
2023-05-19T20:16:59.726Z,13.91
2023-05-19T20:19:28.813Z,14.01
2023-05-19T20:21:55.516Z,13.99
2023-05-19T20:24:22.529Z,14.08
2023-05-19T20:26:49.171Z,13.98
2023-05-19T20:29:15.797Z,14.07
2023-05-19T20:31:42.576Z,13.99
2023-05-19T20:34:09.333Z,13.95
2023-05-19T20:36:36.165Z,13.86
2023-05-19T20:39:03.734Z,13.88
2023-05-19T20:41:30.488Z,13.78
2023-05-19T20:44:03.018Z,13.68
2023-05-19T20:46:29.654Z,13.87
2023-05-19T20:48:58.875Z,13.72
2023-05-19T20:51:27.000Z,13.72
2023-05-19T20:53:53.575Z,13.71
2023-05-19T20:56:20.408Z,13.79
2023-05-19T20:58:46.915Z,13.69
2023-05-19T21:01:13.486Z,13.71
2023-05-19T21:03:40.093Z,13.74
2023-05-19T21:06:06.742Z,13.69
2023-05-19T21:08:33.430Z,13.70
2023-05-19T21:11:14.026Z,13.75
2023-05-19T21:13:46.813Z,13.80
2023-05-19T21:16:13.396Z,13.73
2023-05-19T21:18:40.014Z,13.82
2023-05-19T21:21:06.647Z,13.78
2023-05-19T21:23:36.560Z,13.79
2023-05-19T21:26:15.872Z,13.84
2023-05-19T21:28:43.152Z,13.85
2023-05-19T21:31:09.751Z,13.88
2023-05-19T21:33:36.583Z,13.90
2023-05-19T21:36:03.140Z,13.84
2023-05-19T21:38:30.206Z,13.90
2023-05-19T21:40:56.736Z,13.85
2023-05-19T21:43:23.418Z,13.91
2023-05-19T21:45:50.006Z,13.87
2023-05-19T21:48:16.677Z,13.89
2023-05-19T21:50:43.355Z,13.88
2023-05-19T21:53:16.784Z,13.84
2023-05-19T21:55:43.679Z,13.87
2023-05-19T21:58:11.142Z,13.85
2023-05-19T22:00:38.314Z,13.79
2023-05-19T22:03:05.457Z,13.79
2023-05-19T22:05:32.396Z,13.71
2023-05-19T22:07:59.036Z,13.78
2023-05-19T22:10:25.656Z,13.64
2023-05-19T22:12:52.594Z,13.65
2023-05-19T22:15:19.091Z,13.62
2023-05-19T22:17:45.796Z,13.64
2023-05-19T22:20:20.187Z,13.62
2023-05-19T22:22:46.838Z,13.58
2023-05-19T22:25:16.497Z,13.59
2023-05-19T22:27:43.609Z,13.53
2023-05-19T22:30:10.435Z,13.57
2023-05-19T22:32:37.329Z,13.62
2023-05-19T22:35:04.124Z,13.48
2023-05-19T22:37:31.002Z,13.62
2023-05-19T22:39:57.741Z,13.60
2023-05-19T22:42:24.233Z,13.64
2023-05-19T22:44:50.800Z,13.70
2023-05-19T22:47:25.307Z,13.65
2023-05-19T22:49:52.770Z,13.53
2023-05-19T22:52:20.232Z,13.53
2023-05-19T22:54:47.367Z,13.56
2023-05-19T22:57:13.888Z,13.54
2023-05-19T22:59:41.272Z,13.53
2023-05-19T23:02:07.930Z,13.48
2023-05-19T23:04:34.870Z,13.44
2023-05-19T23:07:01.575Z,13.43
2023-05-19T23:09:28.573Z,13.37
2023-05-19T23:11:55.102Z,13.43
2023-05-19T23:14:34.635Z,13.42
2023-05-19T23:17:04.386Z,13.33
2023-05-19T23:19:33.284Z,13.33
2023-05-19T23:21:59.901Z,13.27
2023-05-19T23:24:26.533Z,13.25
2023-05-19T23:26:56.316Z,13.29
2023-05-19T23:29:23.011Z,13.23
2023-05-19T23:31:49.728Z,13.13
2023-05-19T23:34:16.415Z,13.21
2023-05-19T23:36:42.953Z,13.25
2023-05-19T23:39:09.466Z,13.24
2023-05-19T23:41:45.119Z,13.19
2023-05-19T23:44:11.722Z,12.92
2023-05-19T23:46:38.406Z,13.12
2023-05-19T23:49:05.022Z,13.03
2023-05-19T23:51:31.715Z,13.09
2023-05-19T23:53:58.980Z,13.09
2023-05-19T23:56:25.671Z,13.04
2023-05-19T23:58:52.154Z,13.12
